Time;durP1;ratioP1;P1;durP2;ratioP2;P2;SDS_P1;SDS_P2;PMS_P1;PMS_P2;Temp;Humidity;BMP_temperature;BMP_pressure;BME280_temperature;BME280_humidity;BME280_pressure;Samples;Min_cycle;Max_cycle;Signal;HPM_P1;HPM_P2
2023/05/28 00:01:13;;;;;;;8.82;3.97;;;;;;;9.38;100.00;98782.03;2601182;28;20054;-88
2023/05/28 00:02:39;;;;;;;8.35;4.25;;;;;;;9.38;100.00;98780.28;2591692;28;20394;-88
2023/05/28 00:03:55;;;;;;;11.90;4.95;;;;;;;9.35;100.00;98782.94;2594448;28;20060;-89
2023/05/28 00:05:11;;;;;;;10.38;4.70;;;;;;;9.39;100.00;98782.00;2591770;28;20140;-88
2023/05/28 00:06:26;;;;;;;7.97;4.15;;;;;;;9.18;100.00;98776.25;2595099;28;20045;-87
2023/05/28 00:07:42;;;;;;;12.18;5.13;;;;;;;9.24;100.00;98775.28;2604936;28;20049;-87
2023/05/28 00:08:58;;;;;;;13.90;4.43;;;;;;;9.27;99.83;98774.38;2604349;28;20037;-88
2023/05/28 00:10:14;;;;;;;14.35;5.03;;;;;;;9.21;100.00;98769.25;2604288;28;20045;-88
2023/05/28 00:11:29;;;;;;;10.40;4.28;;;;;;;9.21;100.00;98770.13;2590333;28;20045;-87
2023/05/28 00:12:45;;;;;;;9.77;4.50;;;;;;;9.21;100.00;98767.50;2598239;28;20053;-87
2023/05/28 00:14:00;;;;;;;7.20;3.92;;;;;;;9.16;100.00;98766.75;2602009;28;20480;-87
2023/05/28 00:15:16;;;;;;;8.20;4.28;;;;;;;9.24;100.00;98770.06;2602765;28;20519;-88
2023/05/28 00:16:35;;;;;;;9.23;3.83;;;;;;;9.26;99.80;98770.88;2603940;28;20390;-88
2023/05/28 00:17:54;;;;;;;7.78;4.13;;;;;;;9.23;99.69;98764.88;2604759;28;20048;-88
2023/05/28 00:19:10;;;;;;;9.13;4.30;;;;;;;9.28;98.68;98770.88;2604666;28;20092;-88
2023/05/28 00:20:26;;;;;;;8.85;4.22;;;;;;;9.03;100.00;98766.94;2602371;28;20056;-87
2023/05/28 00:21:41;;;;;;;11.27;4.38;;;;;;;9.12;98.74;98763.31;2602019;28;20765;-89
2023/05/28 00:22:57;;;;;;;10.85;4.32;;;;;;;9.00;100.00;98758.28;2603476;28;20045;-87
2023/05/28 00:24:12;;;;;;;10.05;4.30;;;;;;;8.75;100.00;98766.50;2602956;28;20052;-87
2023/05/28 00:25:29;;;;;;;7.68;4.15;;;;;;;9.01;99.24;98762.63;2602783;28;20046;-87
2023/05/28 00:26:45;;;;;;;8.02;4.22;;;;;;;9.02;100.00;98767.81;2604578;28;20504;-88
2023/05/28 00:28:00;;;;;;;7.10;3.95;;;;;;;9.06;99.33;98763.38;2605484;28;20045;-88
2023/05/28 00:29:16;;;;;;;7.38;3.88;;;;;;;8.88;100.00;98764.59;2603655;28;20052;-88
2023/05/28 00:30:31;;;;;;;10.30;4.35;;;;;;;9.04;100.00;98765.16;2604331;28;20046;-89
2023/05/28 00:31:47;;;;;;;11.57;4.05;;;;;;;8.90;100.00;98761.03;2604979;28;20049;-88
2023/05/28 00:33:02;;;;;;;9.88;3.92;;;;;;;8.89;100.00;98767.16;2601404;28;20335;-88
2023/05/28 00:34:18;;;;;;;11.05;4.25;;;;;;;8.84;100.00;98762.88;2602401;28;20045;-88
2023/05/28 00:35:34;;;;;;;10.63;3.88;;;;;;;8.70;100.00;98763.09;2602463;28;20084;-88
2023/05/28 00:36:50;;;;;;;7.55;3.90;;;;;;;8.51;100.00;98759.91;2602195;28;20049;-87
2023/05/28 00:38:05;;;;;;;9.82;3.70;;;;;;;8.66;100.00;98766.63;2602454;28;20096;-88
2023/05/28 00:39:21;;;;;;;6.82;3.92;;;;;;;8.50;100.00;98768.59;2603141;28;20042;-88
2023/05/28 00:40:36;;;;;;;9.30;3.97;;;;;;;8.53;100.00;98761.63;2602618;28;20052;-88
2023/05/28 00:42:01;;;;;;;11.18;3.58;;;;;;;8.64;100.00;98768.41;2604272;28;20580;-88
2023/05/28 00:43:19;;;;;;;10.02;3.47;;;;;;;8.63;100.00;98762.34;2604512;28;20191;-88
2023/05/28 00:44:34;;;;;;;6.80;3.60;;;;;;;8.66;100.00;98761.41;2604574;28;20524;-88
2023/05/28 00:45:50;;;;;;;8.32;3.60;;;;;;;8.62;100.00;98763.22;2602776;28;20041;-88
2023/05/28 00:47:06;;;;;;;6.10;3.30;;;;;;;8.46;100.00;98755.59;2605579;28;20073;-88
2023/05/28 00:48:22;;;;;;;11.00;3.70;;;;;;;8.66;100.00;98758.81;2604315;28;20060;-87
2023/05/28 00:49:38;;;;;;;7.80;4.07;;;;;;;8.69;100.00;98750.94;2604469;28;20136;-89
2023/05/28 00:50:54;;;;;;;7.80;3.05;;;;;;;8.74;100.00;98754.34;2602622;28;20100;-88
2023/05/28 00:52:10;;;;;;;9.13;3.95;;;;;;;8.62;100.00;98758.84;2605462;28;20040;-89
2023/05/28 00:53:26;;;;;;;7.72;3.70;;;;;;;8.54;100.00;98752.91;2604731;28;20128;-88
2023/05/28 00:54:42;;;;;;;7.60;3.40;;;;;;;8.44;100.00;98752.13;2605006;28;20053;-88
2023/05/28 00:55:58;;;;;;;7.07;4.00;;;;;;;8.54;100.00;98759.84;2603408;28;20049;-87
2023/05/28 00:57:14;;;;;;;7.22;3.65;;;;;;;8.50;100.00;98753.81;2604114;28;20046;-89
2023/05/28 00:58:31;;;;;;;10.43;3.92;;;;;;;8.40;100.00;98750.44;2602073;28;20093;-88
2023/05/28 00:59:47;;;;;;;7.65;3.47;;;;;;;8.51;100.00;98749.47;2603147;28;20473;-88
2023/05/28 01:01:02;;;;;;;8.43;3.92;;;;;;;8.51;100.00;98747.69;2603943;28;20049;-89
2023/05/28 01:02:18;;;;;;;11.48;4.63;;;;;;;8.41;100.00;98753.94;2606024;28;20060;-88
2023/05/28 01:03:38;;;;;;;7.35;3.70;;;;;;;8.38;100.00;98752.22;2604364;28;20100;-87
2023/05/28 01:04:53;;;;;;;9.30;3.65;;;;;;;8.32;100.00;98749.72;2606544;28;20068;-87
2023/05/28 01:06:14;;;;;;;9.90;3.72;;;;;;;8.43;100.00;98753.00;2604382;28;20072;-87
2023/05/28 01:07:30;;;;;;;7.82;3.65;;;;;;;8.43;100.00;98749.53;2594798;28;20061;-88
2023/05/28 01:08:45;;;;;;;6.25;3.70;;;;;;;8.40;100.00;98752.22;2599853;28;20611;-88
2023/05/28 01:10:02;;;;;;;9.45;3.70;;;;;;;8.47;100.00;98751.22;2605119;28;20405;-87
2023/05/28 01:11:20;;;;;;;8.82;4.10;;;;;;;8.49;100.00;98746.84;2606918;28;20207;-88
2023/05/28 01:12:38;;;;;;;10.43;3.88;;;;;;;8.33;100.00;98746.22;2592502;28;20060;-88
2023/05/28 01:13:54;;;;;;;7.00;4.00;;;;;;;8.42;100.00;98750.44;2599243;28;20071;-88
2023/05/28 01:15:10;;;;;;;7.10;4.07;;;;;;;8.35;100.00;98741.84;2604591;28;20052;-88
2023/05/28 01:16:27;;;;;;;8.77;3.75;;;;;;;8.20;100.00;98738.56;2605530;28;20127;-88
2023/05/28 01:17:44;;;;;;;8.45;3.92;;;;;;;7.98;100.00;98743.19;2606734;28;20124;-87
2023/05/28 01:19:00;;;;;;;6.82;3.45;;;;;;;8.00;100.00;98748.38;2603774;28;20471;-87
2023/05/28 01:20:15;;;;;;;6.15;3.75;;;;;;;8.13;100.00;98742.09;2604099;28;20079;-87
2023/05/28 01:21:31;;;;;;;9.43;4.45;;;;;;;8.20;100.00;98743.78;2604867;28;20048;-87
2023/05/28 01:22:55;;;;;;;9.07;3.65;;;;;;;8.27;100.00;98734.13;2605355;28;20076;-88
2023/05/28 01:24:13;;;;;;;9.43;4.35;;;;;;;8.23;100.00;98742.00;2604330;28;20049;-87
2023/05/28 01:25:30;;;;;;;10.50;4.50;;;;;;;8.26;100.00;98740.22;2603933;28;20600;-88
2023/05/28 01:26:46;;;;;;;6.82;3.75;;;;;;;8.10;100.00;98739.56;2606246;28;20172;-87
2023/05/28 01:28:01;;;;;;;8.98;3.85;;;;;;;8.16;100.00;98738.59;2604576;28;20524;-88
2023/05/28 01:29:18;;;;;;;11.57;4.13;;;;;;;8.17;100.00;98733.38;2605263;28;20099;-87
2023/05/28 01:30:34;;;;;;;6.80;3.25;;;;;;;8.11;100.00;98736.06;2605526;28;20131;-88
2023/05/28 01:31:49;;;;;;;10.18;4.00;;;;;;;8.10;100.00;98738.66;2605910;28;20046;-87
2023/05/28 01:33:06;;;;;;;8.65;4.18;;;;;;;7.97;100.00;98732.75;2605717;28;20107;-88
2023/05/28 01:34:23;;;;;;;8.55;3.90;;;;;;;7.97;100.00;98738.84;2604796;28;20123;-88
2023/05/28 01:35:42;;;;;;;9.75;3.58;;;;;;;7.94;100.00;98738.88;2605194;28;20052;-88
2023/05/28 01:37:03;;;;;;;5.10;3.60;;;;;;;7.93;100.00;98726.72;2593863;28;20675;-88
2023/05/28 01:38:21;;;;;;;7.47;3.65;;;;;;;7.69;100.00;98730.50;2598672;28;20053;-88
2023/05/28 01:39:44;;;;;;;6.68;3.33;;;;;;;7.41;100.00;98728.19;2604167;28;20077;-88
2023/05/28 01:41:00;;;;;;;11.95;3.28;;;;;;;7.53;100.00;98729.78;2604201;28;20046;-88
2023/05/28 01:42:16;;;;;;;7.50;3.38;;;;;;;7.39;100.00;98728.19;2602339;28;20057;-87
2023/05/28 01:43:33;;;;;;;8.85;3.95;;;;;;;7.30;100.00;98723.94;2601910;28;20041;-87
2023/05/28 01:44:50;;;;;;;4.43;2.65;;;;;;;7.42;100.00;98716.91;2604177;28;20045;-87
2023/05/28 01:46:06;;;;;;;5.95;3.10;;;;;;;7.51;100.00;98716.81;2602059;28;20053;-87
2023/05/28 01:47:23;;;;;;;4.70;2.95;;;;;;;7.52;100.00;98715.91;2605094;28;20052;-90
2023/05/28 01:48:40;;;;;;;5.35;3.00;;;;;;;7.41;100.00;98721.25;2591791;28;20053;-88
2023/05/28 01:49:55;;;;;;;7.55;3.30;;;;;;;7.41;100.00;98726.47;2599071;28;20048;-87
2023/05/28 01:51:15;;;;;;;5.80;3.00;;;;;;;7.38;100.00;98718.66;2603016;28;20081;-88
2023/05/28 01:52:31;;;;;;;6.15;2.95;;;;;;;7.62;100.00;98722.75;2604632;28;20519;-88
2023/05/28 01:53:47;;;;;;;8.55;3.10;;;;;;;7.71;100.00;98718.31;2603956;28;20132;-88
2023/05/28 01:55:04;;;;;;;8.43;3.28;;;;;;;7.44;100.00;98717.72;2602519;28;20520;-87
2023/05/28 01:56:20;;;;;;;7.00;3.13;;;;;;;7.38;100.00;98720.41;2604746;28;20084;-88
2023/05/28 01:57:36;;;;;;;6.68;3.03;;;;;;;7.38;100.00;98712.59;2603712;28;20059;-88
2023/05/28 01:58:52;;;;;;;6.47;3.30;;;;;;;7.40;100.00;98709.09;2602989;28;20147;-88
2023/05/28 02:00:09;;;;;;;4.72;2.83;;;;;;;7.51;100.00;98710.72;2602866;28;20060;-87
2023/05/28 02:01:28;;;;;;;5.93;2.70;;;;;;;7.56;100.00;98712.38;2601884;28;20096;-87
2023/05/28 02:02:44;;;;;;;8.75;3.05;;;;;;;7.51;100.00;98716.81;2604474;28;20049;-88
2023/05/28 02:04:01;;;;;;;7.03;3.28;;;;;;;7.60;100.00;98710.63;2603905;28;20087;-87
2023/05/28 02:05:17;;;;;;;6.80;3.03;;;;;;;7.64;100.00;98717.50;2603207;28;20092;-88
2023/05/28 02:06:33;;;;;;;6.28;3.05;;;;;;;7.61;100.00;98699.31;2595174;28;20485;-87
2023/05/28 02:07:49;;;;;;;6.78;3.38;;;;;;;7.66;100.00;98705.31;2598485;28;20412;-88
2023/05/28 02:09:05;;;;;;;4.07;2.17;;;;;;;7.59;100.00;98709.75;2604604;28;20077;-88
2023/05/28 02:10:21;;;;;;;5.95;3.08;;;;;;;7.61;100.00;98710.63;2603194;28;20042;-88
2023/05/28 02:11:37;;;;;;;6.78;3.00;;;;;;;7.53;100.00;98715.03;2603645;28;20572;-86
2023/05/28 02:12:52;;;;;;;5.68;2.70;;;;;;;7.55;100.00;98715.03;2600931;28;20049;-87
2023/05/28 02:14:09;;;;;;;5.25;3.10;;;;;;;7.49;100.00;98715.97;2603650;28;20954;-88
2023/05/28 02:15:24;;;;;;;4.22;2.67;;;;;;;7.39;100.00;98709.97;2603418;28;20127;-87
2023/05/28 02:16:47;;;;;;;6.13;3.22;;;;;;;7.31;100.00;98714.41;2603726;28;20496;-87
2023/05/28 02:18:03;;;;;;;7.80;2.90;;;;;;;7.21;100.00;98709.28;2592106;28;20136;-88
2023/05/28 02:19:19;;;;;;;7.43;2.97;;;;;;;7.20;100.00;98712.78;2597212;28;20049;-88
2023/05/28 02:20:34;;;;;;;6.55;3.22;;;;;;;6.95;100.00;98711.28;2604097;28;20056;-87
2023/05/28 02:21:50;;;;;;;7.20;3.40;;;;;;;6.92;100.00;98709.59;2605017;28;20045;-89
2023/05/28 02:23:09;;;;;;;11.32;3.58;;;;;;;6.84;100.00;98714.81;2603429;28;20074;-89
2023/05/28 02:24:25;;;;;;;10.38;3.88;;;;;;;6.92;100.00;98712.19;2603683;28;20064;-89
2023/05/28 02:25:40;;;;;;;5.03;2.97;;;;;;;6.82;100.00;98711.38;2605155;28;20598;-88
2023/05/28 02:26:56;;;;;;;8.13;3.08;;;;;;;6.92;100.00;98723.44;2605227;28;20359;-88
2023/05/28 02:28:11;;;;;;;7.28;3.15;;;;;;;6.96;100.00;98719.06;2601864;28;20797;-88
2023/05/28 02:29:27;;;;;;;7.97;3.28;;;;;;;6.94;100.00;98715.63;2604154;28;20053;-87
2023/05/28 02:30:42;;;;;;;8.82;3.35;;;;;;;6.99;100.00;98723.41;2603527;28;20054;-88
2023/05/28 02:31:59;;;;;;;7.75;3.20;;;;;;;7.01;100.00;98719.03;2603840;28;20184;-87
2023/05/28 02:33:15;;;;;;;8.57;3.28;;;;;;;6.88;100.00;98719.16;2603742;28;20053;-88
2023/05/28 02:34:31;;;;;;;7.18;3.20;;;;;;;6.80;100.00;98718.34;2603404;28;20485;-88
2023/05/28 02:35:46;;;;;;;6.82;3.47;;;;;;;6.72;100.00;98723.59;2604907;28;20053;-88
2023/05/28 02:37:02;;;;;;;7.53;3.25;;;;;;;6.74;100.00;98713.19;2605444;28;20050;-88
2023/05/28 02:38:18;;;;;;;5.50;2.90;;;;;;;6.83;100.00;98723.50;2603292;28;20057;-88
2023/05/28 02:39:33;;;;;;;6.03;3.03;;;;;;;6.81;100.00;98714.84;2601680;28;20051;-88
2023/05/28 02:40:49;;;;;;;4.90;2.63;;;;;;;6.70;100.00;98720.16;2603978;28;20571;-88
2023/05/28 02:42:05;;;;;;;6.15;2.97;;;;;;;6.64;100.00;98720.22;2603644;28;20045;-88
2023/05/28 02:43:20;;;;;;;5.53;3.10;;;;;;;6.60;100.00;98726.28;2602930;28;20080;-88
2023/05/28 02:44:36;;;;;;;7.45;2.95;;;;;;;6.54;100.00;98716.78;2603815;28;20080;-88
2023/05/28 02:45:52;;;;;;;6.18;3.30;;;;;;;6.48;100.00;98714.25;2604076;28;20060;-88
2023/05/28 02:47:08;;;;;;;5.70;3.20;;;;;;;6.64;100.00;98728.88;2603143;28;20517;-89
2023/05/28 02:48:25;;;;;;;5.28;2.53;;;;;;;6.56;100.00;98722.00;2604871;28;20072;-89
2023/05/28 02:49:41;;;;;;;7.32;3.15;;;;;;;6.67;100.00;98721.91;2603251;28;20053;-88
2023/05/28 02:50:56;;;;;;;7.63;3.40;;;;;;;6.66;100.00;98725.38;2603342;28;20092;-87
2023/05/28 02:52:12;;;;;;;5.03;3.00;;;;;;;6.63;100.00;98724.53;2601713;28;20061;-88
2023/05/28 02:53:33;;;;;;;6.55;2.90;;;;;;;6.79;100.00;98721.81;2604770;28;20049;-88
2023/05/28 02:54:49;;;;;;;6.65;3.05;;;;;;;6.75;100.00;98731.38;2604267;28;20056;-88
2023/05/28 02:56:04;;;;;;;4.15;2.75;;;;;;;6.59;100.00;98721.97;2604672;28;20049;-88
2023/05/28 02:57:20;;;;;;;8.45;3.53;;;;;;;6.49;100.00;98718.56;2603223;28;20056;-88
2023/05/28 02:58:36;;;;;;;5.72;2.85;;;;;;;6.50;100.00;98721.19;2604939;28;20052;-88
2023/05/28 02:59:51;;;;;;;6.40;3.08;;;;;;;6.52;100.00;98718.53;2604931;28;20488;-88
2023/05/28 03:01:07;;;;;;;7.75;2.90;;;;;;;6.51;100.00;98714.22;2604967;28;20064;-88
2023/05/28 03:02:23;;;;;;;9.30;3.30;;;;;;;6.55;100.00;98717.66;2602711;28;20088;-88
2023/05/28 03:03:38;;;;;;;7.82;3.25;;;;;;;6.80;100.00;98717.50;2603908;28;20084;-87
2023/05/28 03:04:54;;;;;;;7.90;3.28;;;;;;;6.73;100.00;98722.72;2604061;28;20045;-88
2023/05/28 03:06:10;;;;;;;5.38;3.17;;;;;;;6.74;100.00;98726.19;2604678;28;20049;-88
2023/05/28 03:07:26;;;;;;;7.22;3.10;;;;;;;6.77;100.00;98719.25;2601894;28;20057;-87
2023/05/28 03:08:42;;;;;;;5.97;3.20;;;;;;;6.79;100.00;98729.63;2604687;28;20049;-87
2023/05/28 03:09:57;;;;;;;6.28;3.10;;;;;;;6.87;100.00;98726.97;2601722;28;20057;-88
2023/05/28 03:11:13;;;;;;;5.00;3.03;;;;;;;6.89;100.00;98730.41;2604318;28;20135;-88
2023/05/28 03:12:29;;;;;;;8.43;3.20;;;;;;;6.87;100.00;98732.16;2603522;28;20497;-88
2023/05/28 03:13:45;;;;;;;8.65;3.70;;;;;;;6.95;100.00;98729.50;2603725;28;20595;-88
2023/05/28 03:15:01;;;;;;;8.63;3.60;;;;;;;6.96;100.00;98733.81;2603388;28;20073;-89
2023/05/28 03:16:17;;;;;;;9.63;3.30;;;;;;;6.84;100.00;98729.59;2602948;28;20501;-88
2023/05/28 03:17:33;;;;;;;6.50;3.05;;;;;;;6.79;100.00;98729.63;2603278;28;20045;-89
2023/05/28 03:18:49;;;;;;;10.80;3.80;;;;;;;6.73;100.00;98727.09;2603030;28;21136;-88
2023/05/28 03:20:06;;;;;;;7.05;3.28;;;;;;;6.74;100.00;98728.81;2603283;28;20084;-88
2023/05/28 03:21:21;;;;;;;5.82;3.03;;;;;;;6.71;100.00;98723.63;2603331;28;20053;-88
2023/05/28 03:22:38;;;;;;;6.30;3.13;;;;;;;6.86;100.00;98733.91;2604173;28;20492;-89
2023/05/28 03:23:54;;;;;;;9.95;3.42;;;;;;;6.88;100.00;98726.94;2608457;28;20068;-88
2023/05/28 03:25:09;;;;;;;8.30;3.20;;;;;;;6.92;100.00;98738.22;2611538;28;20143;-88
2023/05/28 03:26:25;;;;;;;7.45;3.40;;;;;;;6.97;100.00;98728.59;2610015;28;20056;-87
2023/05/28 03:27:40;;;;;;;9.55;3.95;;;;;;;6.98;100.00;98729.47;2610420;28;20056;-87
2023/05/28 03:28:56;;;;;;;5.32;3.40;;;;;;;7.02;100.00;98729.41;2609445;28;20107;-86
2023/05/28 03:30:12;;;;;;;6.07;3.78;;;;;;;7.06;100.00;98731.16;2610270;28;20059;-86
2023/05/28 03:31:29;;;;;;;6.57;3.75;;;;;;;7.08;100.00;98731.09;2603455;28;20048;-87
2023/05/28 03:32:45;;;;;;;7.97;3.40;;;;;;;7.10;100.00;98731.09;2606413;28;20103;-87
2023/05/28 03:34:00;;;;;;;8.00;3.50;;;;;;;7.03;100.00;98732.91;2599549;28;20499;-88
2023/05/28 03:35:16;;;;;;;6.85;3.40;;;;;;;6.99;100.00;98729.47;2603333;28;20051;-87
2023/05/28 03:36:32;;;;;;;5.82;3.13;;;;;;;7.03;100.00;98725.94;2598972;28;20046;-86
2023/05/28 03:37:47;;;;;;;5.63;3.20;;;;;;;7.06;100.00;98730.25;2604039;28;20052;-86
2023/05/28 03:39:04;;;;;;;7.18;3.70;;;;;;;7.08;100.00;98728.50;2610142;28;20513;-87
2023/05/28 03:40:19;;;;;;;6.82;3.55;;;;;;;7.06;100.00;98725.94;2609274;28;20114;-87
2023/05/28 03:41:36;;;;;;;6.57;2.92;;;;;;;7.04;100.00;98721.63;2608537;28;20076;-89
2023/05/28 03:42:51;;;;;;;5.78;3.30;;;;;;;6.99;100.00;98726.00;2608783;28;20054;-86
2023/05/28 03:44:07;;;;;;;5.97;3.10;;;;;;;7.02;100.00;98726.81;2609907;28;20115;-87
2023/05/28 03:45:23;;;;;;;6.53;3.63;;;;;;;7.04;100.00;98726.81;2598952;28;20049;-87
2023/05/28 03:46:39;;;;;;;7.35;3.00;;;;;;;7.03;100.00;98728.53;2600516;28;20056;-87
2023/05/28 03:47:54;;;;;;;7.95;3.03;;;;;;;7.05;100.00;98726.81;2607619;28;20049;-88
2023/05/28 03:49:10;;;;;;;6.85;3.50;;;;;;;6.86;100.00;98733.03;2598035;28;20541;-88
2023/05/28 03:50:26;;;;;;;5.95;3.08;;;;;;;6.93;100.00;98727.78;2599335;28;20125;-87
2023/05/28 03:51:42;;;;;;;7.18;3.38;;;;;;;7.05;100.00;98725.94;2605857;28;20046;-89
2023/05/28 03:52:58;;;;;;;5.88;2.95;;;;;;;7.06;100.00;98728.53;2600218;28;20045;-87
2023/05/28 03:54:13;;;;;;;6.82;3.65;;;;;;;6.97;100.00;98730.34;2604732;28;20132;-88
2023/05/28 03:55:29;;;;;;;6.45;3.45;;;;;;;6.99;100.00;98728.59;2611669;28;20052;-86
2023/05/28 03:56:44;;;;;;;5.53;3.20;;;;;;;6.94;100.00;98736.47;2610619;28;20079;-87
2023/05/28 03:58:00;;;;;;;8.07;3.17;;;;;;;6.89;100.00;98728.69;2606403;28;20052;-88
2023/05/28 03:59:16;;;;;;;7.45;3.28;;;;;;;6.89;100.00;98733.88;2607338;28;20053;-87
2023/05/28 04:00:31;;;;;;;7.88;3.38;;;;;;;6.86;100.00;98730.44;2604725;28;20072;-88
2023/05/28 04:01:47;;;;;;;9.20;2.97;;;;;;;6.97;100.00;98730.34;2604426;28;20119;-88
2023/05/28 04:03:03;;;;;;;7.50;3.58;;;;;;;7.05;100.00;98725.94;2604608;28;20052;-87
2023/05/28 04:04:20;;;;;;;8.88;3.40;;;;;;;7.12;100.00;98719.78;2605905;28;20113;-87
2023/05/28 04:05:35;;;;;;;7.13;3.38;;;;;;;7.10;100.00;98726.75;2604630;28;20157;-87
2023/05/28 04:06:51;;;;;;;7.07;3.53;;;;;;;7.16;100.00;98718.03;2605765;28;20052;-87
2023/05/28 04:08:06;;;;;;;5.72;3.17;;;;;;;7.22;100.00;98725.78;2605197;28;20091;-89
2023/05/28 04:09:22;;;;;;;7.82;3.50;;;;;;;7.30;100.00;98726.56;2605806;28;20053;-88
2023/05/28 04:10:38;;;;;;;6.70;3.15;;;;;;;7.32;100.00;98721.34;2605804;28;20045;-89
2023/05/28 04:11:54;;;;;;;8.63;3.63;;;;;;;7.25;100.00;98727.47;2593840;28;20046;-88
2023/05/28 04:13:10;;;;;;;7.03;3.60;;;;;;;7.21;100.00;98722.31;2597719;28;20122;-88
2023/05/28 04:14:26;;;;;;;7.55;3.40;;;;;;;7.43;100.00;98729.91;2603810;28;20073;-88
2023/05/28 04:15:41;;;;;;;7.10;3.55;;;;;;;7.54;100.00;98727.19;2605032;28;20060;-88
2023/05/28 04:16:57;;;;;;;8.35;3.72;;;;;;;7.55;100.00;98730.66;2604651;28;20053;-87
2023/05/28 04:18:13;;;;;;;8.88;4.20;;;;;;;7.34;100.00;98727.41;2606137;28;20064;-87
2023/05/28 04:19:28;;;;;;;10.65;3.88;;;;;;;7.34;100.00;98724.78;2603491;28;20041;-88
2023/05/28 04:20:44;;;;;;;9.77;4.00;;;;;;;7.45;100.00;98728.16;2604410;28;20049;-88
2023/05/28 04:22:00;;;;;;;7.65;3.45;;;;;;;7.54;100.00;98728.91;2602728;28;20103;-87
2023/05/28 04:23:15;;;;;;;7.25;3.97;;;;;;;7.54;100.00;98721.97;2603665;28;20119;-88
2023/05/28 04:24:31;;;;;;;7.22;3.75;;;;;;;7.43;100.00;98719.50;2592194;28;20124;-87
2023/05/28 04:25:47;;;;;;;9.23;3.60;;;;;;;7.46;100.00;98722.06;2597527;28;20053;-88
2023/05/28 04:27:02;;;;;;;7.30;3.70;;;;;;;7.46;100.00;98719.44;2603241;28;20045;-88
2023/05/28 04:28:18;;;;;;;10.00;4.28;;;;;;;7.52;100.00;98721.13;2604566;28;20053;-87
2023/05/28 04:29:34;;;;;;;7.80;3.63;;;;;;;7.32;100.00;98713.53;2605649;28;20493;-87
2023/05/28 04:30:51;;;;;;;8.57;3.88;;;;;;;7.27;100.00;98716.19;2604974;28;20049;-87
2023/05/28 04:32:09;;;;;;;8.00;3.33;;;;;;;7.31;100.00;98714.41;2602538;28;20053;-88
2023/05/28 04:33:28;;;;;;;7.90;4.05;;;;;;;7.36;100.00;98717.81;2603161;28;20148;-87
2023/05/28 04:34:43;;;;;;;11.13;4.00;;;;;;;7.35;100.00;98714.38;2604097;28;20128;-88
2023/05/28 04:36:01;;;;;;;9.30;3.70;;;;;;;7.40;100.00;98713.44;2594161;28;20137;-87
2023/05/28 04:37:17;;;;;;;7.15;3.60;;;;;;;7.49;100.00;98719.41;2597304;28;20053;-87
2023/05/28 04:38:33;;;;;;;6.65;3.30;;;;;;;7.55;100.00;98717.63;2605357;28;20052;-88
2023/05/28 04:39:48;;;;;;;8.52;3.55;;;;;;;7.52;100.00;98718.53;2605593;28;20041;-87
2023/05/28 04:41:04;;;;;;;8.40;3.33;;;;;;;7.65;100.00;98721.84;2607650;28;20080;-88
2023/05/28 04:42:20;;;;;;;7.05;3.60;;;;;;;7.67;100.00;98714.88;2606387;28;20044;-87
2023/05/28 04:43:36;;;;;;;7.60;3.35;;;;;;;7.56;100.00;98714.16;2606864;28;20053;-88
2023/05/28 04:44:53;;;;;;;7.32;3.38;;;;;;;7.66;100.00;98715.75;2604782;28;20053;-88
2023/05/28 04:46:09;;;;;;;7.07;3.75;;;;;;;7.86;100.00;98712.06;2605611;28;20053;-88
2023/05/28 04:47:25;;;;;;;7.25;3.45;;;;;;;7.90;100.00;98713.72;2605283;28;20045;-87
2023/05/28 04:48:41;;;;;;;6.53;3.47;;;;;;;7.75;100.00;98713.03;2606837;28;20594;-90
2023/05/28 04:49:57;;;;;;;11.13;3.67;;;;;;;7.85;100.00;98708.56;2607807;28;20139;-87
2023/05/28 04:51:13;;;;;;;7.85;3.20;;;;;;;7.77;100.00;98713.03;2605560;28;20089;-88
2023/05/28 04:52:31;;;;;;;9.10;3.80;;;;;;;7.99;100.00;98713.63;2606039;28;20734;-87
2023/05/28 04:53:50;;;;;;;9.63;3.85;;;;;;;8.19;100.00;98715.09;2605310;28;20061;-87
2023/05/28 04:55:06;;;;;;;8.40;3.20;;;;;;;8.27;100.00;98712.38;2607002;28;20524;-87
2023/05/28 04:56:22;;;;;;;7.22;3.70;;;;;;;8.13;100.00;98716.03;2605870;28;20043;-89
2023/05/28 04:57:37;;;;;;;8.20;3.10;;;;;;;8.24;100.00;98722.84;2605033;28;20480;-88
2023/05/28 04:58:53;;;;;;;8.60;3.58;;;;;;;8.13;100.00;98718.63;2606791;28;20045;-89
2023/05/28 05:00:12;;;;;;;9.20;3.67;;;;;;;8.25;100.00;98720.25;2606931;28;20053;-88
2023/05/28 05:01:28;;;;;;;5.68;3.33;;;;;;;8.31;100.00;98721.88;2606921;28;20079;-88
2023/05/28 05:02:43;;;;;;;5.93;3.30;;;;;;;8.30;100.00;98723.63;2605683;28;20132;-88
2023/05/28 05:04:00;;;;;;;7.50;3.70;;;;;;;8.35;100.00;98723.56;2604457;28;20048;-88
2023/05/28 05:05:16;;;;;;;6.32;3.50;;;;;;;8.33;100.00;98733.16;2603901;28;20501;-89
2023/05/28 05:06:32;;;;;;;6.30;3.63;;;;;;;8.46;100.00;98723.41;2602966;28;20105;-88
2023/05/28 05:07:48;;;;;;;5.50;3.17;;;;;;;8.48;100.00;98713.81;2605790;28;20136;-88
2023/05/28 05:09:07;;;;;;;7.85;3.85;;;;;;;8.36;100.00;98722.69;2606069;28;20061;-88
2023/05/28 05:10:23;;;;;;;9.20;3.42;;;;;;;8.60;100.00;98716.25;2606563;28;20053;-87
2023/05/28 05:11:39;;;;;;;7.57;3.70;;;;;;;8.66;100.00;98722.25;2605580;28;20049;-85
2023/05/28 05:12:54;;;;;;;8.23;3.63;;;;;;;8.83;100.00;98715.03;2605382;28;20053;-87
2023/05/28 05:14:10;;;;;;;8.73;3.72;;;;;;;9.02;100.00;98712.97;2605342;28;20084;-87
2023/05/28 05:15:27;;;;;;;7.53;3.45;;;;;;;8.68;100.00;98713.53;2606171;28;20045;-87
2023/05/28 05:16:42;;;;;;;9.90;3.95;;;;;;;8.68;100.00;98721.34;2605726;28;20254;-87
2023/05/28 05:17:58;;;;;;;7.80;3.90;;;;;;;8.87;100.00;98718.44;2604726;28;20084;-86
2023/05/28 05:19:13;;;;;;;8.25;4.03;;;;;;;8.98;100.00;98718.28;2604487;28;20318;-87
2023/05/28 05:20:29;;;;;;;8.13;3.70;;;;;;;9.13;100.00;98715.41;2605601;28;20044;-87
2023/05/28 05:21:45;;;;;;;8.45;3.92;;;;;;;9.25;100.00;98714.31;2604538;28;20048;-89
2023/05/28 05:23:00;;;;;;;7.60;3.95;;;;;;;9.22;100.00;98716.97;2605519;28;20050;-87
2023/05/28 05:24:16;;;;;;;7.13;3.90;;;;;;;9.26;100.00;98718.63;2603817;28;20064;-87
2023/05/28 05:25:33;;;;;;;9.93;3.80;;;;;;;9.22;100.00;98718.72;2584352;28;20057;-87
2023/05/28 05:26:48;;;;;;;9.13;4.07;;;;;;;9.22;100.00;98714.38;2593596;28;20053;-87
2023/05/28 05:28:04;;;;;;;10.80;4.28;;;;;;;9.28;100.00;98723.84;2605462;28;20045;-88
2023/05/28 05:29:19;;;;;;;8.43;3.72;;;;;;;9.55;100.00;98716.38;2604899;28;20052;-87
2023/05/28 05:30:35;;;;;;;10.38;4.60;;;;;;;9.70;100.00;98723.91;2606195;28;20064;-87
2023/05/28 05:31:51;;;;;;;7.68;3.78;;;;;;;9.59;100.00;98720.66;2605104;28;20048;-87
2023/05/28 05:33:07;;;;;;;8.57;4.00;;;;;;;9.58;100.00;98716.31;2604915;28;20560;-88
2023/05/28 05:34:22;;;;;;;12.07;4.13;;;;;;;9.75;100.00;98716.84;2604415;28;20045;-87
2023/05/28 05:35:38;;;;;;;11.45;4.35;;;;;;;9.64;100.00;98710.09;2603944;28;20505;-87
2023/05/28 05:36:53;;;;;;;14.10;4.63;;;;;;;9.83;100.00;98710.59;2595107;28;20057;-87
2023/05/28 05:38:09;;;;;;;9.32;4.13;;;;;;;9.89;100.00;98711.34;2597023;28;20650;-87
2023/05/28 05:39:25;;;;;;;9.85;4.32;;;;;;;9.85;100.00;98708.81;2603025;28;20057;-89
2023/05/28 05:40:40;;;;;;;8.05;4.10;;;;;;;9.82;100.00;98703.66;2604810;28;20050;-88
2023/05/28 05:41:56;;;;;;;9.05;4.40;;;;;;;10.04;100.00;98709.28;2604231;28;20057;-87
2023/05/28 05:43:12;;;;;;;8.32;3.80;;;;;;;10.04;100.00;98699.66;2603278;28;20123;-87
2023/05/28 05:44:28;;;;;;;8.00;4.05;;;;;;;10.25;100.00;98702.72;2605051;28;20049;-87
2023/05/28 05:45:43;;;;;;;9.95;4.43;;;;;;;10.27;100.00;98706.16;2602940;28;20049;-87
2023/05/28 05:46:59;;;;;;;10.93;4.20;;;;;;;10.35;100.00;98700.75;2605500;28;20091;-88
2023/05/28 05:48:15;;;;;;;7.75;4.30;;;;;;;10.26;100.00;98701.81;2602880;28;20053;-88
2023/05/28 05:49:30;;;;;;;8.70;4.28;;;;;;;10.34;100.00;98701.66;2605060;28;20143;-88
2023/05/28 05:50:50;;;;;;;7.47;3.47;;;;;;;10.37;100.00;98693.72;2606050;28;20419;-87
2023/05/28 05:52:06;;;;;;;6.90;3.85;;;;;;;10.49;100.00;98694.38;2605302;28;20056;-88
2023/05/28 05:53:22;;;;;;;10.07;4.30;;;;;;;10.60;100.00;98702.84;2605163;28;20091;-88
2023/05/28 05:54:38;;;;;;;9.45;4.28;;;;;;;10.55;100.00;98699.47;2604325;28;20053;-88
2023/05/28 05:55:53;;;;;;;8.10;3.97;;;;;;;10.70;100.00;98696.50;2603290;28;20049;-88
2023/05/28 05:57:09;;;;;;;8.75;4.38;;;;;;;10.90;100.00;98696.91;2604306;28;20045;-88
2023/05/28 05:58:25;;;;;;;7.72;3.95;;;;;;;10.91;100.00;98698.63;2603181;28;20057;-88